Flight Track Log - Related Links

Times and Time Zones

All times are in EDT time to prevent confusion due to time zone crossing. See the ASQ4633 flight status page for this flight to view local times or setup timezone preferences in your user account.

Time Position Orientation Groundspeed Altitude Reporting Facility
EDT Latitude Longitude Course Direction KTS MPH feet Rate Location/Type
Mon 05:34:39 PM 44.3575 -73.0586 196° South 246 283 6,200  Level Boston Center
Mon 05:35:00 PM 44.2555 -73.2178 196° South  Level FlightAware Approximate
Mon 05:35:39 PM 44.3033 -73.0842 199° South 271 312 9,200  Level Boston Center
Mon 05:36:00 PM 44.1887 -73.2528 190° South  Level FlightAware Approximate
Mon 05:36:39 PM 44.2344 -73.1181 199° South 262 302 10,800  Level Boston Center
Mon 05:37:00 PM 44.1176 -73.2706 190° South  Level FlightAware Approximate
Mon 05:37:39 PM 44.1508 -73.1575 199° South 298 343 12,200  Level Boston Center
Mon 05:38:00 PM 44.0469 -73.2913 196° South  Level FlightAware Approximate
Mon 05:38:39 PM 44.0631 -73.2000 199° South 329 379 14,100  Level Boston Center
Mon 05:39:00 PM 43.9775 -73.3191 196° South  Level FlightAware Approximate
Mon 05:39:39 PM 43.9731 -73.2419 199° South 343 395 15,600  Level Boston Center
Mon 05:40:39 PM 43.8769 -73.2897 200° South 357 411 16,000 200 Climbing Boston Center
Mon 05:41:39 PM 43.7764 -73.3372 199° South 376 433 16,000  Level Boston Center
Mon 05:42:39 PM 43.6781 -73.3844 199° South 382 440 16,000  Level Boston Center
Mon 05:43:39 PM 43.5694 -73.4372 199° South 382 440 16,000 -50 Level Boston Center
Mon 05:44:39 PM 43.4689 -73.4842 199° South 382 440 15,900  Descending Boston Center
Mon 05:45:39 PM 43.3664 -73.5339 199° South 388 447 16,000 50 Climbing Boston Center
Mon 05:46:39 PM 43.2847 -73.5725 199° South 388 447 16,000  Level Boston Center
Mon 05:47:39 PM 43.1633 -73.6269 198° South 389 448 16,000  Level Boston Center
Mon 05:48:39 PM 43.0628 -73.6706 198° South 384 442 16,000  Level Boston Center
Mon 05:49:39 PM 42.9622 -73.7139 198° South 384 442 16,000  Level Boston Center
Mon 05:50:39 PM 42.8639 -73.7544 197° South 384 442 16,000  Level Boston Center
Mon 05:51:39 PM 42.7633 -73.8003 199° South 384 442 16,000  Level Boston Center
Mon 05:52:39 PM 42.6628 -73.8433 197° South 384 442 16,000  Level Boston Center
Mon 05:53:39 PM 42.5725 -73.8836 198° South 384 442 16,000  Level Boston Center
Mon 05:54:39 PM 42.4594 -73.9317 197° South 384 442 16,000  Level Boston Center
Mon 05:55:39 PM 42.3714 -73.9717 199° South 384 442 16,000  Level Boston Center
Mon 05:56:39 PM 42.2706 -74.0169 198° South 366 421 16,000  Level Boston Center
Mon 05:57:39 PM 42.1994 -74.0489 198° South 326 375 16,000 -400 Level Boston Center
Mon 05:58:39 PM 42.1092 -74.0911 199° South 312 359 15,200 -850 Descending Boston Center
Mon 05:59:39 PM 42.0272 -74.1253 197° South 312 359 14,300 -955 Descending Boston Center
Mon 06:00:51 PM 41.9539 -74.1569 198° South 297 342 13,100 -1,045 Descending Boston Center
Mon 06:01:51 PM 41.8678 -74.1936 198° South 292 336 12,000 -1,100 Descending Boston Center
Mon 06:02:51 PM 41.7861 -74.2303 199° South 286 329 10,900 -950 Descending Boston Center
Mon 06:03:51 PM 41.7208 -74.2592 198° South 286 329 10,100 -400 Descending Boston Center
Mon 06:04:51 PM 41.6411 -74.2931 198° South 286 329 10,100 -200 Level Boston Center
Mon 06:05:51 PM 41.5761 -74.3217 198° South 286 329 9,700 -950 Descending Boston Center
Mon 06:06:51 PM 41.4964 -74.3581 199° South 286 329 8,200 -912 Descending Boston Center
Mon 06:08:42 PM 41.3667 -74.4167 199° South 266 306 7,100 -456 Descending New York TRACON
Mon 06:09:42 PM 41.3000 -74.4333 191° South 262 302 6,900 -500 Descending New York TRACON
Mon 06:10:42 PM 41.2333 -74.4667 201° Southwest 258 297 6,100 -400 Descending New York TRACON
Mon 06:11:42 PM 41.1667 -74.5000 201° Southwest 259 298 6,100  Level New York TRACON
Mon 06:12:42 PM 41.1000 -74.5167 191° South 231 266 6,100  Level New York TRACON
Mon 06:13:42 PM 41.0333 -74.5500 201° Southwest 227 261 6,100  Level New York TRACON
Mon 06:14:42 PM 40.9833 -74.5667 194° South 235 270 6,100  Level New York TRACON
Mon 06:15:42 PM 40.9167 -74.5833 191° South 250 288 6,100  Level New York TRACON
Mon 06:16:36 PM 40.8500 -74.6000 191° South 250 288 6,100  Level New York TRACON
Mon 06:17:36 PM 40.7833 -74.6000 180° South 248 285 6,100  Level New York TRACON
Mon 06:18:42 PM 40.7000 -74.6000 180° South 240 276 6,100  Level New York TRACON
Mon 06:19:42 PM 40.6500 -74.6167 194° South 235 270 6,100 -53 Level New York TRACON
Mon 06:20:36 PM 40.6000 -74.6167 180° South 229 264 6,000 -500 Descending New York TRACON
Mon 06:21:42 PM 40.5500 -74.5667 143° Southeast 219 252 5,100 -429 Descending New York TRACON
Mon 06:22:42 PM 40.5000 -74.5500 166° South 218 251 5,100 -100 Level New York TRACON
Mon 06:23:42 PM 40.4333 -74.5167 159° South 217 250 4,900 -500 Descending New York TRACON
Mon 06:24:42 PM 40.3833 -74.4833 153° Southeast 214 246 4,100 -400 Descending New York TRACON
Mon 06:25:42 PM 40.3833 -74.4333 90° East 166 191 4,100 -450 Level New York TRACON
Mon 06:26:42 PM 40.4000 -74.3667 72° East 169 194 3,200 -500 Descending New York TRACON
Mon 06:27:42 PM 40.4333 -74.3333 37° Northeast 171 197 3,100 -50 Descending New York TRACON
Mon 06:28:42 PM 40.4667 -74.3000 37° Northeast 169 194 3,100  Level New York TRACON
Mon 06:29:42 PM 40.5167 -74.2833 14° North 165 190 3,100  Level New York TRACON

Login

Don't have an account? Register now (free) for customized features, flight alerts, and more!